Time;durP1;ratioP1;P1;durP2;ratioP2;P2;SDS_P1;SDS_P2;PMS_P1;PMS_P2;Temp;Humidity;BMP_temperature;BMP_pressure;BME280_temperature;BME280_humidity;BME280_pressure;Samples;Min_cycle;Max_cycle;Signal;HPM_P1;HPM_P2
2021/03/17 08:09:58;;;;;;;4.50;1.73;;;7.70;99.90;;;;;;4254324;27;20249;-65
2021/03/17 08:12:25;;;;;;;9.43;2.10;;;7.80;99.90;;;;;;4920086;29;20205;-65
2021/03/17 08:14:53;;;;;;;6.13;1.93;;;7.80;99.90;;;;;;4919740;29;20233;-65
2021/03/17 08:17:32;;;;;;;3.97;1.80;;;7.70;99.90;;;;;;4919967;29;20216;-65
2021/03/17 08:20:20;;;;;;;7.70;1.90;;;7.80;99.90;;;;;;4919391;29;20244;-65
2021/03/17 08:22:47;;;;;;;8.77;1.87;;;7.90;99.90;;;;;;4919695;29;20217;-66
2021/03/17 08:25:35;;;;;;;4.57;1.53;;;7.90;99.90;;;;;;4919585;29;20292;-66
2021/03/17 08:28:21;;;;;;;5.60;2.17;;;7.90;99.90;;;;;;4919801;29;20296;-65
2021/03/17 08:30:49;;;;;;;8.00;1.97;;;7.90;99.90;;;;;;4919682;29;20213;-66
2021/03/17 08:33:31;;;;;;;4.17;1.80;;;7.90;99.90;;;;;;4919682;29;20224;-65
2021/03/17 08:36:04;;;;;;;4.17;1.87;;;7.90;99.90;;;;;;4919490;29;20284;-65
2021/03/17 08:38:52;;;;;;;3.03;1.73;;;7.90;99.90;;;;;;4919684;29;20213;-65
2021/03/17 08:41:52;;;;;;;9.93;2.20;;;7.90;99.90;;;;;;4919740;29;20652;-66
2021/03/17 08:44:21;;;;;;;6.80;1.93;;;8.00;99.90;;;;;;4919448;29;20591;-66
2021/03/17 08:46:48;;;;;;;5.40;2.10;;;8.10;99.90;;;;;;4919414;29;20688;-66
2021/03/17 08:49:27;;;;;;;4.93;2.30;;;8.20;99.90;;;;;;4919397;29;20206;-65
2021/03/17 08:52:05;;;;;;;7.37;2.50;;;8.30;99.90;;;;;;4918796;29;20265;-66
2021/03/17 08:55:05;;;;;;;11.40;2.40;;;8.40;99.90;;;;;;4919342;29;20293;-66
2021/03/17 08:57:59;;;;;;;2.90;2.07;;;8.40;99.90;;;;;;4919368;29;20205;-66
2021/03/17 09:00:49;;;;;;;7.37;2.60;;;8.50;99.90;;;;;;4919243;29;20251;-65
2021/03/17 09:03:34;;;;;;;5.37;1.90;;;8.40;99.90;;;;;;4919283;29;20205;-66
2021/03/17 09:06:09;;;;;;;4.90;2.00;;;8.30;99.90;;;;;;4919119;29;20252;-66
2021/03/17 09:08:58;;;;;;;3.10;1.80;;;8.30;99.90;;;;;;4919091;29;20217;-66
2021/03/17 09:11:52;;;;;;;3.77;1.90;;;8.20;99.90;;;;;;4919173;29;20213;-66
2021/03/17 09:14:31;;;;;;;9.73;2.17;;;8.30;99.90;;;;;;4918911;29;20573;-66
2021/03/17 09:17:25;;;;;;;5.13;1.80;;;8.30;99.90;;;;;;4918989;29;20216;-66
2021/03/17 09:20:10;;;;;;;3.70;1.60;;;8.30;99.90;;;;;;4918802;29;20746;-66
2021/03/17 09:22:46;;;;;;;2.23;1.20;;;8.30;99.90;;;;;;4918708;29;20209;-66
2021/03/17 09:25:22;;;;;;;3.20;1.20;;;8.30;99.90;;;;;;4918696;29;20229;-66
2021/03/17 09:27:51;;;;;;;2.20;1.30;;;8.40;99.90;;;;;;4918835;29;20209;-66
2021/03/17 09:30:21;;;;;;;2.93;1.20;;;8.30;99.90;;;;;;4918650;29;20688;-66
2021/03/17 09:32:49;;;;;;;4.73;0.97;;;8.20;99.90;;;;;;4918916;29;20217;-66
2021/03/17 09:35:16;;;;;;;7.90;1.40;;;8.20;99.90;;;;;;4918207;29;20233;-66
2021/03/17 09:37:43;;;;;;;1.07;0.83;;;8.20;99.90;;;;;;4918804;29;20216;-66
2021/03/17 09:40:13;;;;;;;1.43;1.03;;;8.10;99.90;;;;;;4918572;29;20248;-66
2021/03/17 09:42:39;;;;;;;1.70;1.10;;;8.10;99.90;;;;;;4918645;29;20206;-66
2021/03/17 09:45:08;;;;;;;1.67;0.90;;;8.10;99.90;;;;;;4918275;29;20720;-66
2021/03/17 09:47:35;;;;;;;1.93;1.10;;;8.10;99.90;;;;;;4918349;29;20225;-66
2021/03/17 09:50:03;;;;;;;2.10;1.10;;;8.10;99.90;;;;;;4918527;29;20296;-66
2021/03/17 09:52:30;;;;;;;2.30;0.80;;;8.10;99.90;;;;;;4918328;29;20210;-66
2021/03/17 09:54:56;;;;;;;1.97;1.00;;;7.90;99.90;;;;;;4917962;29;20717;-66
2021/03/17 09:57:24;;;;;;;1.60;1.40;;;7.90;99.90;;;;;;4918188;29;20566;-66
2021/03/17 09:59:50;;;;;;;0.77;0.73;;;7.80;99.90;;;;;;4918149;29;20240;-66
2021/03/17 10:02:21;;;;;;;2.07;0.90;;;7.70;99.90;;;;;;4917079;29;20665;-66
2021/03/17 10:04:49;;;;;;;1.40;1.00;;;7.70;99.90;;;;;;4918072;29;20230;-66
2021/03/17 10:07:17;;;;;;;4.77;1.30;;;7.60;99.90;;;;;;4917955;29;20710;-65
2021/03/17 10:09:45;;;;;;;2.87;1.00;;;7.60;99.90;;;;;;4917556;29;20578;-66
2021/03/17 10:12:13;;;;;;;3.73;1.30;;;7.70;99.90;;;;;;4917836;29;20209;-66
2021/03/17 10:14:45;;;;;;;2.80;1.30;;;7.80;99.90;;;;;;4917549;29;20209;-66
2021/03/17 10:17:12;;;;;;;1.53;1.03;;;8.00;99.90;;;;;;4917564;29;20210;-66
2021/03/17 10:19:40;;;;;;;2.10;1.20;;;8.20;99.90;;;;;;4917690;29;20569;-66
2021/03/17 10:22:08;;;;;;;0.97;0.80;;;8.50;99.90;;;;;;4917847;29;20236;-66
2021/03/17 10:24:37;;;;;;;1.80;0.90;;;8.50;99.90;;;;;;4917477;29;20214;-66
2021/03/17 10:27:06;;;;;;;1.23;0.83;;;8.50;99.90;;;;;;4918074;29;20221;-66
2021/03/17 10:29:33;;;;;;;2.83;0.97;;;8.60;99.90;;;;;;4917914;29;20218;-66
2021/03/17 10:32:00;;;;;;;1.30;1.10;;;8.70;99.90;;;;;;4917693;29;20209;-66
2021/03/17 10:34:27;;;;;;;3.27;1.23;;;8.60;99.90;;;;;;4917446;29;20261;-66
2021/03/17 10:36:54;;;;;;;1.77;1.10;;;8.40;99.90;;;;;;4917433;29;20660;-66
2021/03/17 10:39:26;;;;;;;3.63;0.93;;;8.30;99.90;;;;;;4917500;29;20244;-66
2021/03/17 10:41:53;;;;;;;1.77;1.00;;;8.20;99.90;;;;;;4917561;29;20273;-66
2021/03/17 10:44:21;;;;;;;1.33;0.87;;;8.20;99.90;;;;;;4917521;29;20622;-66
2021/03/17 10:47:02;;;;;;;1.37;0.97;;;8.20;99.90;;;;;;4917677;29;20214;-66
2021/03/17 10:49:29;;;;;;;2.10;1.00;;;8.40;99.90;;;;;;4917303;29;20217;-66
2021/03/17 10:51:57;;;;;;;1.57;1.00;;;8.50;99.90;;;;;;4917133;29;20214;-66
2021/03/17 10:54:32;;;;;;;1.57;0.90;;;8.70;99.90;;;;;;4917359;29;20210;-66
2021/03/17 10:56:59;;;;;;;2.43;1.20;;;8.60;99.90;;;;;;4917309;29;20220;-66
2021/03/17 10:59:27;;;;;;;1.37;1.20;;;8.40;99.90;;;;;;4917276;29;20293;-66
2021/03/17 11:02:29;;;;;;;2.47;1.63;;;8.30;99.90;;;;;;4917144;29;20679;-66
2021/03/17 11:05:21;;;;;;;2.23;1.10;;;8.20;99.90;;;;;;4916919;29;20229;-66
2021/03/17 11:08:15;;;;;;;2.50;1.47;;;8.20;99.90;;;;;;4901107;29;20205;-66
2021/03/17 11:10:54;;;;;;;1.53;1.40;;;8.00;99.90;;;;;;4907910;29;20210;-66
2021/03/17 11:13:40;;;;;;;1.67;1.20;;;7.90;99.90;;;;;;4908163;29;20248;-66
2021/03/17 11:16:24;;;;;;;1.70;1.20;;;7.70;99.90;;;;;;4905820;29;20239;-66
2021/03/17 11:18:52;;;;;;;1.87;1.10;;;7.70;99.90;;;;;;4903875;29;20210;-66
2021/03/17 11:21:23;;;;;;;3.10;1.47;;;7.70;99.90;;;;;;4913376;29;20665;-66
2021/03/17 11:23:50;;;;;;;2.43;1.33;;;7.80;99.90;;;;;;4907014;29;20666;-66
2021/03/17 11:26:23;;;;;;;1.50;1.10;;;7.90;99.90;;;;;;4910615;29;20253;-66
2021/03/17 11:28:51;;;;;;;4.23;1.20;;;7.90;99.90;;;;;;4902883;29;20221;-66
2021/03/17 11:31:27;;;;;;;1.70;1.20;;;7.80;99.90;;;;;;4912963;29;20210;-65
2021/03/17 11:33:54;;;;;;;2.20;1.33;;;7.90;99.90;;;;;;4907260;29;20602;-65
2021/03/17 11:36:21;;;;;;;1.70;1.00;;;7.80;99.90;;;;;;4911350;29;20225;-66
2021/03/17 11:38:47;;;;;;;1.97;1.20;;;7.70;99.90;;;;;;4910698;29;20217;-65
2021/03/17 11:41:14;;;;;;;1.57;1.40;;;7.70;99.90;;;;;;4907451;29;20205;-66
2021/03/17 11:43:41;;;;;;;1.60;1.17;;;7.60;99.90;;;;;;4906045;29;20206;-67
2021/03/17 11:46:07;;;;;;;1.70;1.27;;;7.50;99.90;;;;;;4902648;29;20234;-67
2021/03/17 11:48:34;;;;;;;1.40;1.23;;;7.40;99.90;;;;;;4908122;29;20206;-66
2021/03/17 11:51:06;;;;;;;1.53;1.30;;;7.30;99.90;;;;;;4911169;29;20213;-67
2021/03/17 11:53:33;;;;;;;1.70;1.30;;;7.20;99.90;;;;;;4907897;29;20221;-67
2021/03/17 11:56:00;;;;;;;2.23;1.70;;;7.00;99.90;;;;;;4905079;29;20233;-67
2021/03/17 11:58:26;;;;;;;2.37;1.40;;;7.00;99.90;;;;;;4911209;29;20277;-67
2021/03/17 12:00:53;;;;;;;1.77;1.43;;;7.00;99.90;;;;;;4910392;29;20249;-68
2021/03/17 12:03:19;;;;;;;3.10;1.73;;;7.20;99.90;;;;;;4902040;29;20404;-67
2021/03/17 12:05:46;;;;;;;2.90;1.83;;;7.10;99.90;;;;;;4912738;29;20225;-64
2021/03/17 12:08:14;;;;;;;1.63;1.40;;;7.30;99.90;;;;;;4906425;29;20217;-67
2021/03/17 12:10:42;;;;;;;5.90;1.83;;;7.60;99.90;;;;;;4907456;29;20597;-66
2021/03/17 12:13:08;;;;;;;2.13;1.63;;;7.70;99.90;;;;;;4911732;29;20661;-67
2021/03/17 12:15:35;;;;;;;12.00;2.20;;;8.00;99.90;;;;;;4910503;29;20226;-66
2021/03/17 12:18:02;;;;;;;3.53;2.00;;;8.20;99.90;;;;;;4911435;29;20688;-65
2021/03/17 12:20:30;;;;;;;2.23;1.83;;;8.40;99.90;;;;;;4904569;29;20646;-67
2021/03/17 12:22:57;;;;;;;3.30;1.80;;;8.30;99.90;;;;;;4906921;29;20301;-65
2021/03/17 12:25:23;;;;;;;4.10;1.87;;;8.20;99.90;;;;;;4909921;29;20593;-66
2021/03/17 12:27:49;;;;;;;6.40;1.93;;;8.20;99.90;;;;;;4908127;29;20258;-67
2021/03/17 12:30:18;;;;;;;2.30;1.70;;;8.10;99.90;;;;;;4912157;29;20210;-65
2021/03/17 12:32:45;;;;;;;4.53;1.63;;;8.00;99.90;;;;;;4910131;29;20233;-66
2021/03/17 12:35:14;;;;;;;5.37;2.27;;;8.00;99.90;;;;;;4908826;29;20701;-67
2021/03/17 12:37:42;;;;;;;4.10;1.53;;;8.00;99.90;;;;;;4912648;29;20213;-67
2021/03/17 12:40:10;;;;;;;6.33;1.90;;;8.00;99.90;;;;;;4917849;29;20293;-65
2021/03/17 12:42:37;;;;;;;7.57;2.00;;;7.90;99.90;;;;;;4910779;29;20214;-66
2021/03/17 12:45:04;;;;;;;2.70;2.07;;;7.70;99.90;;;;;;4914477;29;20716;-65
2021/03/17 12:47:31;;;;;;;2.93;1.90;;;7.70;99.90;;;;;;4917951;29;20221;-66
2021/03/17 12:49:57;;;;;;;3.47;1.83;;;7.70;99.90;;;;;;4911910;29;20210;-66
2021/03/17 12:52:24;;;;;;;2.83;1.63;;;7.90;99.90;;;;;;4915149;29;20569;-65
2021/03/17 12:54:50;;;;;;;2.20;1.60;;;7.90;99.90;;;;;;4906299;29;20230;-65
2021/03/17 12:57:17;;;;;;;3.67;2.00;;;7.90;99.90;;;;;;4914011;29;20217;-64
2021/03/17 12:59:43;;;;;;;5.07;2.00;;;7.90;99.90;;;;;;4914618;29;20230;-64
2021/03/17 13:02:10;;;;;;;3.10;1.43;;;7.90;99.90;;;;;;4905644;29;20415;-65
2021/03/17 13:04:37;;;;;;;3.37;1.23;;;7.90;99.90;;;;;;4899768;29;20559;-64
2021/03/17 13:07:03;;;;;;;4.33;1.50;;;8.00;99.90;;;;;;4899767;29;20241;-65
2021/03/17 13:09:31;;;;;;;1.00;0.90;;;7.80;99.90;;;;;;4899398;29;20218;-64
2021/03/17 13:11:57;;;;;;;4.47;1.30;;;7.80;99.90;;;;;;4899949;29;20233;-65
2021/03/17 13:14:25;;;;;;;3.43;1.03;;;8.00;99.90;;;;;;4899766;29;20207;-64
2021/03/17 13:16:51;;;;;;;5.20;0.90;;;8.10;99.90;;;;;;4899856;29;20214;-64
2021/03/17 13:19:17;;;;;;;3.70;0.90;;;8.10;99.90;;;;;;4906188;29;20237;-66
2021/03/17 13:21:44;;;;;;;1.87;1.00;;;8.20;99.90;;;;;;4918537;29;20214;-63
2021/03/17 13:24:10;;;;;;;2.43;1.00;;;8.30;99.90;;;;;;4917962;29;20209;-64
2021/03/17 13:26:38;;;;;;;2.50;1.30;;;8.40;99.90;;;;;;4918309;29;20232;-65
2021/03/17 13:29:05;;;;;;;2.07;1.07;;;8.40;99.90;;;;;;4917868;29;20213;-64
2021/03/17 13:31:31;;;;;;;2.43;0.90;;;8.10;99.90;;;;;;4918258;29;20210;-64
2021/03/17 13:33:57;;;;;;;2.77;1.00;;;7.90;99.90;;;;;;4918588;29;20237;-66
2021/03/17 13:36:24;;;;;;;2.20;1.03;;;7.90;99.90;;;;;;4917803;29;20236;-66
2021/03/17 13:38:50;;;;;;;2.30;1.07;;;7.80;99.90;;;;;;4918569;29;20209;-66
2021/03/17 13:41:16;;;;;;;2.80;0.87;;;7.90;99.90;;;;;;4918392;29;20605;-64
2021/03/17 13:43:43;;;;;;;0.73;0.60;;;7.90;99.90;;;;;;4918637;29;20225;-64
2021/03/17 13:46:10;;;;;;;2.57;0.70;;;7.90;99.90;;;;;;4918560;29;20225;-66
2021/03/17 13:48:36;;;;;;;1.03;0.80;;;7.80;99.90;;;;;;4918380;29;20613;-65
2021/03/17 13:51:03;;;;;;;0.70;0.67;;;8.00;99.90;;;;;;4918579;29;20225;-65
2021/03/17 13:53:29;;;;;;;2.53;0.90;;;8.10;99.90;;;;;;4918253;29;20569;-66
2021/03/17 13:55:55;;;;;;;0.70;0.60;;;8.20;99.90;;;;;;4918223;29;20236;-65
2021/03/17 13:58:21;;;;;;;0.80;0.80;;;8.30;99.90;;;;;;4918358;29;20371;-65
2021/03/17 14:00:49;;;;;;;1.77;1.00;;;8.40;99.90;;;;;;4918177;29;20704;-66
2021/03/17 14:03:15;;;;;;;1.40;0.70;;;8.50;99.90;;;;;;4917962;29;20210;-64
2021/03/17 14:05:41;;;;;;;2.93;1.00;;;8.60;99.90;;;;;;4915751;29;20229;-64
2021/03/17 14:08:08;;;;;;;2.10;0.97;;;8.60;99.90;;;;;;4916312;29;20245;-64
2021/03/17 14:10:36;;;;;;;0.90;0.70;;;8.70;99.90;;;;;;4916588;29;20217;-64
2021/03/17 14:13:04;;;;;;;1.67;0.80;;;8.80;99.90;;;;;;4917051;29;20212;-65
2021/03/17 14:15:31;;;;;;;1.20;0.70;;;8.90;99.90;;;;;;4917877;29;20237;-65
2021/03/17 14:17:58;;;;;;;5.93;1.20;;;9.00;99.90;;;;;;4917976;29;20209;-65
2021/03/17 14:20:27;;;;;;;4.00;0.90;;;9.00;99.90;;;;;;4917647;29;20708;-65
2021/03/17 14:22:53;;;;;;;1.30;0.90;;;9.10;99.90;;;;;;4917799;29;20213;-65
2021/03/17 14:25:21;;;;;;;1.57;0.83;;;9.10;99.90;;;;;;4917763;29;20320;-65
2021/03/17 14:27:47;;;;;;;1.20;0.70;;;9.30;99.90;;;;;;4917825;29;20217;-64
2021/03/17 14:30:14;;;;;;;3.80;1.20;;;9.40;99.90;;;;;;4914390;29;20229;-65
2021/03/17 14:32:41;;;;;;;2.10;0.90;;;9.60;99.90;;;;;;4917575;29;20205;-65
2021/03/17 14:35:10;;;;;;;2.30;0.87;;;9.70;99.90;;;;;;4916562;29;20233;-65
2021/03/17 14:37:37;;;;;;;1.60;0.90;;;9.80;99.90;;;;;;4917357;29;20209;-65
2021/03/17 14:40:04;;;;;;;1.40;0.97;;;9.90;99.90;;;;;;4913064;29;20638;-65
2021/03/17 14:42:31;;;;;;;1.23;0.97;;;9.90;99.90;;;;;;4915501;29;20217;-65
2021/03/17 14:44:57;;;;;;;7.53;0.93;;;10.10;99.90;;;;;;4917382;29;20281;-64
2021/03/17 14:47:23;;;;;;;5.57;0.97;;;10.20;99.90;;;;;;4917877;29;20217;-65
2021/03/17 14:49:49;;;;;;;3.63;1.17;;;10.20;99.90;;;;;;4916730;29;20213;-65
2021/03/17 14:52:16;;;;;;;1.43;0.67;;;10.10;99.90;;;;;;4917147;29;20210;-65
2021/03/17 14:54:43;;;;;;;5.90;0.90;;;10.10;99.90;;;;;;4916596;29;20240;-65
2021/03/17 14:57:09;;;;;;;1.43;0.70;;;10.00;99.90;;;;;;4917078;29;20673;-66
2021/03/17 14:59:35;;;;;;;4.10;0.70;;;10.00;99.90;;;;;;4916693;29;20237;-66
2021/03/17 15:02:02;;;;;;;2.37;0.60;;;10.00;99.90;;;;;;4915941;29;20205;-66
2021/03/17 15:04:28;;;;;;;4.73;0.70;;;10.00;99.90;;;;;;4917291;29;20569;-65
2021/03/17 15:06:55;;;;;;;1.93;0.70;;;10.10;99.90;;;;;;4915083;29;20688;-65
2021/03/17 15:09:22;;;;;;;2.93;0.80;;;10.30;99.90;;;;;;4917067;29;20637;-65
2021/03/17 15:11:48;;;;;;;4.33;0.50;;;10.50;99.90;;;;;;4916301;29;20213;-66
2021/03/17 15:14:14;;;;;;;2.40;0.60;;;10.50;99.90;;;;;;4917084;29;20261;-65
2021/03/17 15:16:41;;;;;;;1.47;0.50;;;10.40;99.90;;;;;;4916872;29;20234;-65
2021/03/17 15:19:07;;;;;;;1.17;0.50;;;10.40;99.90;;;;;;4917062;29;20213;-65
2021/03/17 15:21:34;;;;;;;1.27;0.50;;;10.40;99.90;;;;;;4917164;29;20214;-65
2021/03/17 15:24:00;;;;;;;2.70;0.60;;;10.40;99.90;;;;;;4916932;29;20212;-66
2021/03/17 15:26:28;;;;;;;1.53;0.50;;;10.20;99.90;;;;;;4916694;29;20700;-65
2021/03/17 15:28:55;;;;;;;3.67;0.73;;;10.00;99.90;;;;;;4916841;29;20220;-65
2021/03/17 15:31:23;;;;;;;1.50;0.53;;;10.00;99.90;;;;;;4916849;29;20222;-67
2021/03/17 15:33:49;;;;;;;3.80;0.60;;;9.80;99.90;;;;;;4916758;29;20206;-66
2021/03/17 15:36:15;;;;;;;2.17;0.77;;;9.50;99.90;;;;;;4916720;29;20229;-67
2021/03/17 15:38:42;;;;;;;4.67;0.73;;;9.30;99.90;;;;;;4916442;29;20213;-66
2021/03/17 15:41:08;;;;;;;2.47;0.73;;;9.10;99.90;;;;;;4916744;29;20241;-67
2021/03/17 15:43:35;;;;;;;4.10;0.80;;;9.00;99.90;;;;;;4916890;29;20296;-67
2021/03/17 15:46:01;;;;;;;1.73;0.90;;;9.00;99.90;;;;;;4916520;29;20237;-67
2021/03/17 15:48:28;;;;;;;3.57;0.87;;;8.90;99.90;;;;;;4916590;29;20684;-67
2021/03/17 15:50:54;;;;;;;2.60;0.80;;;9.00;99.90;;;;;;4916806;29;20274;-65
2021/03/17 15:53:21;;;;;;;3.27;0.97;;;9.10;99.90;;;;;;4916794;29;20209;-66
2021/03/17 15:55:48;;;;;;;4.40;0.83;;;9.30;99.90;;;;;;4916651;29;20233;-64
2021/03/17 15:58:14;;;;;;;1.07;0.60;;;9.40;99.90;;;;;;4916621;29;20276;-65
2021/03/17 16:00:41;;;;;;;4.30;0.83;;;9.60;99.90;;;;;;4918254;29;20236;-66
2021/03/17 16:03:08;;;;;;;1.03;0.43;;;9.60;99.90;;;;;;4920377;29;20209;-67
2021/03/17 16:05:34;;;;;;;3.83;0.80;;;9.50;99.90;;;;;;4920132;29;20268;-66
2021/03/17 16:08:01;;;;;;;5.57;0.80;;;9.40;99.90;;;;;;4920026;29;20210;-67
2021/03/17 16:10:28;;;;;;;3.23;0.60;;;9.40;99.90;;;;;;4919864;29;20217;-65
2021/03/17 16:12:56;;;;;;;2.00;0.90;;;9.50;99.90;;;;;;4919693;29;20265;-66
2021/03/17 16:15:25;;;;;;;3.67;0.90;;;9.60;99.90;;;;;;4919745;29;20240;-67
2021/03/17 16:17:53;;;;;;;1.87;0.70;;;9.70;99.90;;;;;;4920192;29;20210;-67
2021/03/17 16:20:23;;;;;;;3.03;0.80;;;9.90;99.90;;;;;;4920170;29;20271;-66
2021/03/17 16:22:49;;;;;;;0.97;0.60;;;9.90;99.90;;;;;;4919425;29;20206;-66
2021/03/17 16:25:16;;;;;;;6.20;0.93;;;9.90;99.90;;;;;;4919366;29;20230;-65
2021/03/17 16:27:43;;;;;;;2.63;0.83;;;9.90;99.90;;;;;;4918138;29;20213;-65
2021/03/17 16:30:12;;;;;;;2.20;0.93;;;9.90;99.90;;;;;;4919112;29;20217;-67
2021/03/17 16:32:38;;;;;;;3.57;0.90;;;9.90;99.90;;;;;;4918423;29;20296;-67
2021/03/17 16:35:07;;;;;;;2.17;0.63;;;10.00;99.90;;;;;;4918979;29;20249;-66
2021/03/17 16:37:33;;;;;;;2.40;0.60;;;9.90;99.90;;;;;;4918628;29;20217;-65
2021/03/17 16:39:59;;;;;;;2.37;0.70;;;9.80;99.90;;;;;;4919169;29;20256;-67
2021/03/17 16:42:25;;;;;;;2.17;0.90;;;9.90;99.90;;;;;;4919236;29;20216;-67
2021/03/17 16:44:52;;;;;;;3.13;0.60;;;9.80;99.90;;;;;;4919450;29;20230;-66
2021/03/17 16:47:19;;;;;;;2.30;0.43;;;9.80;99.90;;;;;;4922838;29;20206;-66
2021/03/17 16:49:46;;;;;;;1.57;0.60;;;9.80;99.90;;;;;;4928242;29;20612;-66
2021/03/17 16:52:13;;;;;;;3.20;0.60;;;9.60;99.90;;;;;;4929561;29;20213;-66
2021/03/17 16:54:40;;;;;;;2.77;0.70;;;9.40;99.90;;;;;;4937738;29;20212;-65
2021/03/17 16:57:07;;;;;;;3.87;1.13;;;9.20;99.90;;;;;;4938148;29;20204;-68
2021/03/17 16:59:33;;;;;;;4.40;0.70;;;8.90;99.90;;;;;;4938010;29;20719;-66
2021/03/17 17:02:00;;;;;;;4.47;0.50;;;8.60;99.90;;;;;;4929251;29;20202;-66
2021/03/17 17:04:27;;;;;;;2.53;0.90;;;8.20;99.90;;;;;;4929318;29;20691;-66
2021/03/17 17:06:53;;;;;;;1.80;0.50;;;7.80;99.90;;;;;;4937730;29;20213;-67
2021/03/17 17:09:20;;;;;;;3.03;0.70;;;7.40;99.90;;;;;;4931614;29;20217;-66
2021/03/17 17:11:46;;;;;;;2.40;0.60;;;7.20;99.90;;;;;;4929180;29;20268;-66
2021/03/17 17:14:12;;;;;;;2.77;0.83;;;7.10;99.90;;;;;;4929702;29;20197;-66
2021/03/17 17:16:39;;;;;;;4.40;0.90;;;7.10;99.90;;;;;;4931467;29;20821;-66
2021/03/17 17:19:05;;;;;;;3.87;0.63;;;7.10;99.90;;;;;;4923027;29;20205;-66
2021/03/17 17:21:31;;;;;;;4.10;0.50;;;7.30;99.90;;;;;;4911080;29;20238;-67
2021/03/17 17:23:57;;;;;;;4.30;0.70;;;7.60;99.90;;;;;;4914882;29;20206;-67
2021/03/17 17:26:24;;;;;;;2.90;0.70;;;7.70;99.90;;;;;;4910332;29;20230;-67
2021/03/17 17:28:51;;;;;;;1.93;0.80;;;7.80;99.90;;;;;;4906079;29;20214;-67
2021/03/17 17:31:18;;;;;;;1.53;0.70;;;7.90;99.90;;;;;;4912678;29;20210;-67
2021/03/17 17:33:45;;;;;;;2.17;0.90;;;8.00;99.90;;;;;;4900997;29;20233;-67
2021/03/17 17:36:11;;;;;;;2.37;0.73;;;8.10;99.90;;;;;;4903862;29;20321;-66
2021/03/17 17:38:38;;;;;;;2.70;0.80;;;8.20;99.90;;;;;;4908570;29;20228;-67
2021/03/17 17:41:05;;;;;;;5.33;2.73;;;8.20;99.90;;;;;;4906974;29;20596;-67
2021/03/17 17:43:32;;;;;;;6.73;3.20;;;8.20;99.90;;;;;;4906740;29;20293;-67
2021/03/17 17:45:58;;;;;;;5.73;1.70;;;8.30;99.90;;;;;;4915444;29;20589;-67
2021/03/17 17:48:25;;;;;;;5.50;1.93;;;8.30;99.90;;;;;;4908620;29;20202;-66
2021/03/17 17:50:51;;;;;;;2.80;0.73;;;8.30;99.90;;;;;;4910618;29;20214;-66
2021/03/17 17:53:18;;;;;;;3.63;0.97;;;8.00;99.90;;;;;;4908001;29;20265;-67
2021/03/17 17:55:44;;;;;;;3.00;1.57;;;7.70;99.90;;;;;;4915986;29;20230;-66
2021/03/17 17:58:10;;;;;;;4.47;1.53;;;7.40;99.90;;;;;;4916528;29;20217;-67
2021/03/17 18:00:38;;;;;;;3.67;1.70;;;7.30;99.90;;;;;;4917864;29;20241;-66
2021/03/17 18:03:04;;;;;;;2.70;1.63;;;7.10;99.90;;;;;;4916636;29;20611;-67
2021/03/17 18:05:31;;;;;;;3.50;2.13;;;7.00;99.90;;;;;;4916203;29;20229;-66
2021/03/17 18:07:57;;;;;;;2.37;0.90;;;7.10;99.90;;;;;;4918103;29;20304;-67
2021/03/17 18:10:26;;;;;;;6.83;1.77;;;7.10;99.90;;;;;;4917352;29;20218;-65
2021/03/17 18:12:54;;;;;;;4.87;1.00;;;7.00;99.90;;;;;;4917489;29;20210;-66
2021/03/17 18:15:22;;;;;;;6.10;1.30;;;7.00;99.90;;;;;;4917899;29;20638;-69
2021/03/17 18:17:49;;;;;;;4.33;1.00;;;7.10;99.90;;;;;;4913507;29;20700;-69
2021/03/17 18:20:17;;;;;;;6.03;0.80;;;7.10;99.90;;;;;;4915475;29;20244;-67
2021/03/17 18:22:44;;;;;;;6.20;1.00;;;7.30;99.90;;;;;;4915942;29;20693;-69
2021/03/17 18:25:12;;;;;;;1.67;0.77;;;7.30;99.90;;;;;;4915346;29;20233;-69
2021/03/17 18:27:39;;;;;;;6.77;1.63;;;7.30;99.90;;;;;;4916131;29;20703;-69
2021/03/17 18:30:07;;;;;;;14.17;3.80;;;7.40;99.90;;;;;;4916084;29;20209;-65
2021/03/17 18:32:33;;;;;;;5.03;1.00;;;7.50;99.90;;;;;;4917575;29;20213;-65
2021/03/17 18:35:00;;;;;;;4.07;1.17;;;7.50;99.90;;;;;;4922621;29;20232;-67
2021/03/17 18:37:27;;;;;;;4.87;1.00;;;7.60;99.90;;;;;;4936282;29;20244;-66
2021/03/17 18:39:53;;;;;;;4.50;1.30;;;7.70;99.90;;;;;;4935869;29;20619;-66
2021/03/17 18:42:19;;;;;;;4.60;1.10;;;7.70;99.90;;;;;;4936509;29;20208;-67
2021/03/17 18:44:45;;;;;;;4.03;1.33;;;7.70;99.90;;;;;;4936474;29;20224;-66
2021/03/17 18:47:11;;;;;;;3.57;1.03;;;7.70;99.90;;;;;;4936284;29;20673;-67
2021/03/17 18:49:38;;;;;;;5.27;1.10;;;7.70;99.90;;;;;;4936340;29;20691;-66
2021/03/17 18:52:05;;;;;;;6.10;3.00;;;7.70;99.90;;;;;;4936353;29;20219;-67
2021/03/17 18:54:31;;;;;;;7.20;1.57;;;7.70;99.90;;;;;;4936047;29;20208;-66
2021/03/17 18:56:57;;;;;;;3.63;1.00;;;7.70;99.90;;;;;;4936109;29;20217;-65
2021/03/17 18:59:23;;;;;;;5.00;1.17;;;7.50;99.90;;;;;;4935744;29;20217;-66
2021/03/17 19:01:50;;;;;;;1.37;1.00;;;7.60;99.90;;;;;;4935922;29;20213;-66
2021/03/17 19:04:16;;;;;;;7.87;1.30;;;7.70;99.90;;;;;;4936142;29;20241;-66
2021/03/17 19:06:43;;;;;;;4.73;1.50;;;7.70;99.90;;;;;;4936130;29;20225;-66
2021/03/17 19:09:10;;;;;;;9.20;1.63;;;7.80;99.90;;;;;;4927070;29;20851;-66
2021/03/17 19:11:36;;;;;;;4.50;1.30;;;7.70;99.90;;;;;;4897202;29;20206;-66
2021/03/17 19:14:03;;;;;;;4.27;1.37;;;7.80;99.90;;;;;;4897112;29;20222;-66
2021/03/17 19:16:29;;;;;;;3.77;1.50;;;7.80;99.90;;;;;;4897326;29;20256;-66
2021/03/17 19:18:56;;;;;;;4.00;1.27;;;7.90;99.90;;;;;;4897629;29;20672;-66
2021/03/17 19:21:22;;;;;;;3.77;1.67;;;7.80;99.90;;;;;;4897647;29;20238;-65
2021/03/17 19:23:48;;;;;;;4.93;2.63;;;7.80;99.90;;;;;;4897685;29;20218;-66
2021/03/17 19:26:16;;;;;;;5.07;2.33;;;7.80;99.90;;;;;;4897534;29;20245;-66
2021/03/17 19:28:43;;;;;;;7.37;1.60;;;7.90;99.90;;;;;;4897694;29;20534;-66
2021/03/17 19:31:12;;;;;;;3.97;1.70;;;8.00;99.90;;;;;;4897675;29;20471;-66
2021/03/17 19:33:41;;;;;;;8.20;2.53;;;7.90;99.90;;;;;;4897664;29;20214;-65
2021/03/17 19:36:09;;;;;;;5.37;1.97;;;7.80;99.90;;;;;;4902314;29;20692;-66
2021/03/17 19:38:36;;;;;;;1.57;1.00;;;7.90;99.90;;;;;;4903996;29;20210;-66
2021/03/17 19:41:04;;;;;;;3.00;1.40;;;7.90;99.90;;;;;;4903773;29;20238;-66
2021/03/17 19:43:33;;;;;;;5.53;1.80;;;8.00;99.90;;;;;;4903829;29;20257;-66
2021/03/17 19:46:00;;;;;;;5.10;1.53;;;8.00;99.90;;;;;;4903903;29;20234;-66
2021/03/17 19:48:27;;;;;;;5.00;1.37;;;8.00;99.90;;;;;;4903704;29;20238;-66
2021/03/17 19:50:54;;;;;;;2.33;1.50;;;8.00;99.90;;;;;;4903698;29;20222;-66
2021/03/17 19:53:20;;;;;;;4.63;1.37;;;8.00;99.90;;;;;;4903795;29;20221;-66
2021/03/17 19:55:47;;;;;;;4.43;1.57;;;7.90;99.90;;;;;;4903432;29;20234;-65
2021/03/17 19:58:13;;;;;;;6.53;1.13;;;7.80;99.90;;;;;;4903381;29;20221;-65
2021/03/17 20:00:42;;;;;;;6.33;1.63;;;7.90;99.90;;;;;;4903731;29;20713;-65
2021/03/17 20:03:10;;;;;;;6.50;2.63;;;7.90;99.90;;;;;;4902769;29;20210;-66
2021/03/17 20:05:37;;;;;;;10.00;2.00;;;7.90;99.90;;;;;;4902373;29;20245;-66
2021/03/17 20:08:07;;;;;;;4.23;1.43;;;7.90;99.90;;;;;;4902528;29;20221;-66
2021/03/17 20:10:33;;;;;;;5.47;1.73;;;8.00;99.90;;;;;;4903255;29;20222;-66
2021/03/17 20:13:00;;;;;;;5.27;1.50;;;8.00;99.90;;;;;;4904181;29;20214;-67
2021/03/17 20:15:26;;;;;;;9.60;1.50;;;7.90;99.90;;;;;;4904033;29;20234;-66
2021/03/17 20:17:54;;;;;;;8.53;1.30;;;8.10;99.90;;;;;;4904114;29;20571;-66
2021/03/17 20:20:22;;;;;;;14.20;2.40;;;8.10;99.90;;;;;;4903973;29;20237;-68
2021/03/17 20:22:49;;;;;;;5.43;1.67;;;8.20;99.90;;;;;;4903827;29;20217;-66
2021/03/17 20:25:19;;;;;;;3.17;1.67;;;8.30;99.90;;;;;;4903472;29;20725;-66
2021/03/17 20:27:48;;;;;;;8.37;2.50;;;8.20;99.90;;;;;;4904073;29;20206;-66
2021/03/17 20:30:17;;;;;;;7.57;1.40;;;8.10;99.90;;;;;;4903819;29;20221;-66
2021/03/17 20:32:44;;;;;;;5.17;1.90;;;8.10;99.90;;;;;;4903792;29;20225;-66
2021/03/17 20:35:13;;;;;;;5.50;1.30;;;8.10;99.90;;;;;;4903671;29;20238;-67
2021/03/17 20:37:40;;;;;;;5.43;1.23;;;8.10;99.90;;;;;;4903532;29;20611;-66
2021/03/17 20:40:07;;;;;;;4.70;1.17;;;8.10;99.90;;;;;;4903806;29;20250;-67
2021/03/17 20:42:34;;;;;;;5.33;1.20;;;8.00;99.90;;;;;;4903955;29;20214;-67
2021/03/17 20:45:00;;;;;;;3.90;1.23;;;8.00;99.90;;;;;;4903599;29;20254;-67
2021/03/17 20:47:27;;;;;;;5.07;1.30;;;8.00;99.90;;;;;;4900455;29;20210;-65
2021/03/17 20:49:53;;;;;;;6.93;1.93;;;8.00;99.90;;;;;;4900484;29;20207;-65
2021/03/17 20:52:20;;;;;;;3.90;1.30;;;8.10;99.90;;;;;;4900418;29;20215;-66
2021/03/17 20:54:46;;;;;;;4.70;1.63;;;8.20;99.90;;;;;;4900588;29;20230;-65
2021/03/17 20:57:13;;;;;;;8.60;1.50;;;8.20;99.90;;;;;;4900378;29;20211;-66
2021/03/17 20:59:39;;;;;;;4.07;1.10;;;8.20;99.90;;;;;;4900045;29;20233;-65
2021/03/17 21:02:05;;;;;;;11.93;1.07;;;8.20;99.90;;;;;;4900482;29;20674;-66
2021/03/17 21:04:31;;;;;;;10.33;2.80;;;8.20;99.90;;;;;;4900296;29;20211;-65
2021/03/17 21:06:58;;;;;;;8.07;1.87;;;8.10;99.90;;;;;;4899992;29;20753;-65
2021/03/17 21:09:26;;;;;;;5.23;2.10;;;8.10;99.90;;;;;;4900051;29;20281;-65
2021/03/17 21:11:52;;;;;;;8.17;1.23;;;8.10;99.90;;;;;;4900171;29;20220;-66